sensor_id;sensor_type;location;lat;lon;timestamp;pressure;altitude;pressure_sealevel;temperature;humidity
24788;BME280;12883;52.662;5.196;2023-07-30T00:00:38;100604.09;;;17.96;100.00
24788;BME280;12883;52.662;5.196;2023-07-30T00:03:03;100644.63;;;18.21;100.00
24788;BME280;12883;52.662;5.196;2023-07-30T00:05:28;100643.28;;;18.18;100.00
24788;BME280;12883;52.662;5.196;2023-07-30T00:07:54;100638.97;;;18.17;100.00
24788;BME280;12883;52.662;5.196;2023-07-30T00:10:19;100644.63;;;18.21;100.00
24788;BME280;12883;52.662;5.196;2023-07-30T00:12:45;100636.72;;;18.09;100.00
24788;BME280;12883;52.662;5.196;2023-07-30T00:15:10;100636.03;;;18.19;100.00
24788;BME280;12883;52.662;5.196;2023-07-30T00:17:36;100647.59;;;18.19;100.00
24788;BME280;12883;52.662;5.196;2023-07-30T00:20:01;100630.97;;;18.22;100.00
24788;BME280;12883;52.662;5.196;2023-07-30T00:22:27;100636.94;;;18.29;100.00
24788;BME280;12883;52.662;5.196;2023-07-30T00:24:52;100647.13;;;18.27;100.00
24788;BME280;12883;52.662;5.196;2023-07-30T00:27:17;100645.25;;;18.28;100.00
24788;BME280;12883;52.662;5.196;2023-07-30T00:29:43;100637.75;;;18.30;100.00
24788;BME280;12883;52.662;5.196;2023-07-30T00:32:08;100634.78;;;18.26;100.00
24788;BME280;12883;52.662;5.196;2023-07-30T00:34:34;100638.09;;;18.33;100.00
24788;BME280;12883;52.662;5.196;2023-07-30T00:36:59;100645.16;;;18.39;100.00
24788;BME280;12883;52.662;5.196;2023-07-30T00:39:25;100638.72;;;18.40;100.00
24788;BME280;12883;52.662;5.196;2023-07-30T00:41:50;100649.69;;;18.39;100.00
24788;BME280;12883;52.662;5.196;2023-07-30T00:44:15;100639.25;;;18.42;100.00
24788;BME280;12883;52.662;5.196;2023-07-30T00:46:41;100639.78;;;18.39;100.00
24788;BME280;12883;52.662;5.196;2023-07-30T00:49:06;100633.56;;;18.39;100.00
24788;BME280;12883;52.662;5.196;2023-07-30T00:51:33;100653.25;;;18.44;100.00
24788;BME280;12883;52.662;5.196;2023-07-30T00:53:59;100645.44;;;18.43;100.00
24788;BME280;12883;52.662;5.196;2023-07-30T00:56:24;100639.81;;;18.44;100.00
24788;BME280;12883;52.662;5.196;2023-07-30T00:58:50;100638.78;;;18.50;100.00
24788;BME280;12883;52.662;5.196;2023-07-30T01:01:17;100649.84;;;18.54;100.00
24788;BME280;12883;52.662;5.196;2023-07-30T01:03:43;100632.88;;;18.48;100.00
24788;BME280;12883;52.662;5.196;2023-07-30T01:06:08;100650.09;;;18.52;100.00
24788;BME280;12883;52.662;5.196;2023-07-30T01:08:34;100648.78;;;18.55;100.00
24788;BME280;12883;52.662;5.196;2023-07-30T01:11:00;100664.41;;;18.58;100.00
24788;BME280;12883;52.662;5.196;2023-07-30T01:13:27;100636.34;;;18.49;100.00
24788;BME280;12883;52.662;5.196;2023-07-30T01:15:54;100652.28;;;18.55;100.00
24788;BME280;12883;52.662;5.196;2023-07-30T01:18:19;100657.41;;;18.57;100.00
24788;BME280;12883;52.662;5.196;2023-07-30T01:20:44;100645.31;;;18.59;100.00
24788;BME280;12883;52.662;5.196;2023-07-30T01:23:10;100658.75;;;18.59;100.00
24788;BME280;12883;52.662;5.196;2023-07-30T01:25:36;100613.94;;;18.38;100.00
24788;BME280;12883;52.662;5.196;2023-07-30T01:28:04;100658.50;;;18.61;100.00
24788;BME280;12883;52.662;5.196;2023-07-30T01:30:37;100659.81;;;18.58;100.00
24788;BME280;12883;52.662;5.196;2023-07-30T01:33:05;100644.09;;;18.40;100.00
24788;BME280;12883;52.662;5.196;2023-07-30T01:35:31;100646.66;;;18.57;100.00
24788;BME280;12883;52.662;5.196;2023-07-30T01:37:57;100648.00;;;18.59;100.00
24788;BME280;12883;52.662;5.196;2023-07-30T01:40:23;100652.78;;;18.52;100.00
24788;BME280;12883;52.662;5.196;2023-07-30T01:42:49;100661.72;;;18.58;100.00
24788;BME280;12883;52.662;5.196;2023-07-30T01:45:15;100653.00;;;18.46;100.00
24788;BME280;12883;52.662;5.196;2023-07-30T01:47:40;100666.50;;;18.51;100.00
24788;BME280;12883;52.662;5.196;2023-07-30T01:50:06;100613.75;;;18.18;100.00
24788;BME280;12883;52.662;5.196;2023-07-30T01:52:31;100665.41;;;18.52;100.00
24788;BME280;12883;52.662;5.196;2023-07-30T01:54:56;100660.53;;;18.49;100.00
24788;BME280;12883;52.662;5.196;2023-07-30T01:57:24;100673.13;;;18.43;100.00
24788;BME280;12883;52.662;5.196;2023-07-30T01:59:49;100680.13;;;18.44;100.00
24788;BME280;12883;52.662;5.196;2023-07-30T02:02:14;100682.50;;;18.41;100.00
24788;BME280;12883;52.662;5.196;2023-07-30T02:04:40;100679.88;;;18.46;100.00
24788;BME280;12883;52.662;5.196;2023-07-30T02:07:05;100624.38;;;18.08;100.00
24788;BME280;12883;52.662;5.196;2023-07-30T02:09:30;100671.72;;;18.36;100.00
24788;BME280;12883;52.662;5.196;2023-07-30T02:11:56;100672.75;;;18.35;100.00
24788;BME280;12883;52.662;5.196;2023-07-30T02:14:21;100660.56;;;18.27;100.00
24788;BME280;12883;52.662;5.196;2023-07-30T02:16:46;100665.47;;;18.30;100.00
24788;BME280;12883;52.662;5.196;2023-07-30T02:19:12;100680.75;;;18.30;100.00
24788;BME280;12883;52.662;5.196;2023-07-30T02:21:37;100682.31;;;18.26;100.00
24788;BME280;12883;52.662;5.196;2023-07-30T02:24:07;100677.75;;;18.26;100.00
24788;BME280;12883;52.662;5.196;2023-07-30T02:26:35;100670.47;;;18.00;100.00
24788;BME280;12883;52.662;5.196;2023-07-30T02:29:00;100599.81;;;17.73;100.00
24788;BME280;12883;52.662;5.196;2023-07-30T02:31:26;100680.91;;;18.18;100.00
24788;BME280;12883;52.662;5.196;2023-07-30T02:33:51;100678.22;;;18.18;100.00
24788;BME280;12883;52.662;5.196;2023-07-30T02:36:16;100669.03;;;18.14;100.00
24788;BME280;12883;52.662;5.196;2023-07-30T02:38:42;100680.28;;;18.11;100.00
24788;BME280;12883;52.662;5.196;2023-07-30T02:41:07;100672.72;;;18.08;100.00
24788;BME280;12883;52.662;5.196;2023-07-30T02:43:32;100669.47;;;18.06;100.00
24788;BME280;12883;52.662;5.196;2023-07-30T02:45:58;100667.88;;;18.10;100.00
24788;BME280;12883;52.662;5.196;2023-07-30T02:48:23;100669.47;;;18.06;100.00
24788;BME280;12883;52.662;5.196;2023-07-30T02:50:48;100674.31;;;18.09;100.00
24788;BME280;12883;52.662;5.196;2023-07-30T02:53:14;100663.59;;;18.09;100.00
24788;BME280;12883;52.662;5.196;2023-07-30T02:55:39;100670.47;;;18.00;100.00
24788;BME280;12883;52.662;5.196;2023-07-30T02:58:04;100661.41;;;18.06;100.00
24788;BME280;12883;52.662;5.196;2023-07-30T03:00:30;100657.59;;;18.02;100.00
24788;BME280;12883;52.662;5.196;2023-07-30T03:02:56;100662.41;;;18.00;100.00
24788;BME280;12883;52.662;5.196;2023-07-30T03:05:21;100662.66;;;17.99;100.00
24788;BME280;12883;52.662;5.196;2023-07-30T03:07:47;100649.91;;;17.89;100.00
24788;BME280;12883;52.662;5.196;2023-07-30T03:10:12;100660.25;;;17.97;100.00
24788;BME280;12883;52.662;5.196;2023-07-30T03:12:37;100661.28;;;17.96;100.00
24788;BME280;12883;52.662;5.196;2023-07-30T03:15:03;100661.25;;;17.91;100.00
24788;BME280;12883;52.662;5.196;2023-07-30T03:17:28;100669.84;;;17.93;100.00
24788;BME280;12883;52.662;5.196;2023-07-30T03:19:54;100664.41;;;17.88;100.00
24788;BME280;12883;52.662;5.196;2023-07-30T03:22:19;100668.28;;;17.76;100.00
24788;BME280;12883;52.662;5.196;2023-07-30T03:24:48;100679.41;;;17.84;100.00
24788;BME280;12883;52.662;5.196;2023-07-30T03:27:13;100674.75;;;17.80;100.00
24788;BME280;12883;52.662;5.196;2023-07-30T03:29:39;100668.53;;;17.74;100.00
24788;BME280;12883;52.662;5.196;2023-07-30T03:32:04;100631.78;;;17.37;100.00
24788;BME280;12883;52.662;5.196;2023-07-30T03:34:30;100680.69;;;17.60;100.00
24788;BME280;12883;52.662;5.196;2023-07-30T03:36:55;100707.06;;;17.63;100.00
24788;BME280;12883;52.662;5.196;2023-07-30T03:39:21;100718.78;;;17.57;100.00
24788;BME280;12883;52.662;5.196;2023-07-30T03:41:46;100726.31;;;17.60;100.00
24788;BME280;12883;52.662;5.196;2023-07-30T03:44:11;100730.94;;;17.65;100.00
24788;BME280;12883;52.662;5.196;2023-07-30T03:46:37;100728.00;;;17.66;100.00
24788;BME280;12883;52.662;5.196;2023-07-30T03:49:02;100726.88;;;17.62;100.00
24788;BME280;12883;52.662;5.196;2023-07-30T03:51:28;100742.97;;;17.62;100.00
24788;BME280;12883;52.662;5.196;2023-07-30T03:53:53;100743.06;;;17.67;100.00
24788;BME280;12883;52.662;5.196;2023-07-30T03:56:18;100727.38;;;17.59;100.00
24788;BME280;12883;52.662;5.196;2023-07-30T03:58:44;100738.19;;;17.64;100.00
24788;BME280;12883;52.662;5.196;2023-07-30T04:01:09;100735.00;;;17.67;100.00
24788;BME280;12883;52.662;5.196;2023-07-30T04:03:34;100738.75;;;17.66;100.00
24788;BME280;12883;52.662;5.196;2023-07-30T04:06:00;100740.88;;;17.64;100.00
24788;BME280;12883;52.662;5.196;2023-07-30T04:08:25;100744.63;;;17.63;100.00
24788;BME280;12883;52.662;5.196;2023-07-30T04:10:50;100746.81;;;17.66;100.00
24788;BME280;12883;52.662;5.196;2023-07-30T04:13:16;100738.25;;;17.69;100.00
24788;BME280;12883;52.662;5.196;2023-07-30T04:15:41;100749.50;;;17.66;100.00
24788;BME280;12883;52.662;5.196;2023-07-30T04:18:07;100748.66;;;17.66;100.00
24788;BME280;12883;52.662;5.196;2023-07-30T04:20:32;100756.72;;;17.66;100.00
24788;BME280;12883;52.662;5.196;2023-07-30T04:22:57;100754.84;;;17.66;100.00
24788;BME280;12883;52.662;5.196;2023-07-30T04:25:23;100757.03;;;17.69;100.00
24788;BME280;12883;52.662;5.196;2023-07-30T04:27:48;100765.41;;;17.73;100.00
24788;BME280;12883;52.662;5.196;2023-07-30T04:30:13;100762.47;;;17.74;100.00
24788;BME280;12883;52.662;5.196;2023-07-30T04:32:39;100763.31;;;17.75;100.00
24788;BME280;12883;52.662;5.196;2023-07-30T04:35:04;100762.00;;;17.77;100.00
24788;BME280;12883;52.662;5.196;2023-07-30T04:37:30;100766.88;;;17.80;100.00
24788;BME280;12883;52.662;5.196;2023-07-30T04:39:56;100748.81;;;17.76;100.00
24788;BME280;12883;52.662;5.196;2023-07-30T04:42:22;100763.13;;;17.81;100.00
24788;BME280;12883;52.662;5.196;2023-07-30T04:44:47;100758.25;;;17.78;100.00
24788;BME280;12883;52.662;5.196;2023-07-30T04:47:12;100766.03;;;17.80;100.00
24788;BME280;12883;52.662;5.196;2023-07-30T04:49:37;100768.50;;;17.81;100.00
24788;BME280;12883;52.662;5.196;2023-07-30T04:52:06;100753.19;;;17.82;100.00
24788;BME280;12883;52.662;5.196;2023-07-30T04:54:32;100760.66;;;17.80;100.00
24788;BME280;12883;52.662;5.196;2023-07-30T04:56:58;100746.81;;;17.66;100.00
24788;BME280;12883;52.662;5.196;2023-07-30T04:59:23;100762.56;;;17.79;100.00
24788;BME280;12883;52.662;5.196;2023-07-30T05:01:48;100759.06;;;17.79;100.00
24788;BME280;12883;52.662;5.196;2023-07-30T05:04:14;100734.38;;;17.60;100.00
24788;BME280;12883;52.662;5.196;2023-07-30T05:06:39;100753.88;;;17.72;100.00
24788;BME280;12883;52.662;5.196;2023-07-30T05:09:04;100767.69;;;17.81;100.00
24788;BME280;12883;52.662;5.196;2023-07-30T05:11:30;100766.34;;;17.83;100.00
24788;BME280;12883;52.662;5.196;2023-07-30T05:13:55;100750.47;;;17.60;100.00
24788;BME280;12883;52.662;5.196;2023-07-30T05:16:21;100769.47;;;17.75;100.00
24788;BME280;12883;52.662;5.196;2023-07-30T05:18:46;100703.16;;;17.38;100.00
24788;BME280;12883;52.662;5.196;2023-07-30T05:21:12;100772.78;;;17.82;100.00
24788;BME280;12883;52.662;5.196;2023-07-30T05:23:37;100775.47;;;17.82;100.00
24788;BME280;12883;52.662;5.196;2023-07-30T05:26:02;100717.53;;;17.48;100.00
24788;BME280;12883;52.662;5.196;2023-07-30T05:28:28;100783.81;;;17.81;100.00
24788;BME280;12883;52.662;5.196;2023-07-30T05:30:53;100763.19;;;17.86;100.00
24788;BME280;12883;52.662;5.196;2023-07-30T05:33:18;100767.75;;;17.86;100.00
24788;BME280;12883;52.662;5.196;2023-07-30T05:35:44;100768.06;;;17.89;100.00
24788;BME280;12883;52.662;5.196;2023-07-30T05:38:10;100760.50;;;17.86;100.00
24788;BME280;12883;52.662;5.196;2023-07-30T05:40:36;100701.13;;;17.45;100.00
24788;BME280;12883;52.662;5.196;2023-07-30T05:43:01;100766.13;;;17.85;100.00
24788;BME280;12883;52.662;5.196;2023-07-30T05:45:27;100764.38;;;17.95;100.00
24788;BME280;12883;52.662;5.196;2023-07-30T05:47:52;100775.94;;;17.96;100.00
24788;BME280;12883;52.662;5.196;2023-07-30T05:50:18;100729.72;;;17.72;100.00
24788;BME280;12883;52.662;5.196;2023-07-30T05:52:43;100751.28;;;17.77;100.00
24788;BME280;12883;52.662;5.196;2023-07-30T05:55:09;100776.75;;;17.96;100.00
24788;BME280;12883;52.662;5.196;2023-07-30T05:57:34;100777.75;;;17.90;100.00
24788;BME280;12883;52.662;5.196;2023-07-30T05:59:59;100769.63;;;17.85;100.00
24788;BME280;12883;52.662;5.196;2023-07-30T06:02:25;100786.47;;;17.97;100.00
24788;BME280;12883;52.662;5.196;2023-07-30T06:04:50;100782.13;;;17.96;100.00
24788;BME280;12883;52.662;5.196;2023-07-30T06:07:15;100785.13;;;18.00;100.00
24788;BME280;12883;52.662;5.196;2023-07-30T06:09:41;100773.81;;;17.98;100.00
24788;BME280;12883;52.662;5.196;2023-07-30T06:12:06;100787.56;;;18.01;100.00
24788;BME280;12883;52.662;5.196;2023-07-30T06:14:32;100783.25;;;18.00;100.00
24788;BME280;12883;52.662;5.196;2023-07-30T06:16:57;100777.66;;;18.02;100.00
24788;BME280;12883;52.662;5.196;2023-07-30T06:19:22;100779.81;;;18.05;100.00
24788;BME280;12883;52.662;5.196;2023-07-30T06:21:48;100788.13;;;18.03;100.00
24788;BME280;12883;52.662;5.196;2023-07-30T06:24:13;100777.38;;;18.03;100.00
24788;BME280;12883;52.662;5.196;2023-07-30T06:26:39;100784.88;;;18.01;100.00
24788;BME280;12883;52.662;5.196;2023-07-30T06:29:04;100793.25;;;18.05;100.00
24788;BME280;12883;52.662;5.196;2023-07-30T06:31:29;100788.94;;;18.04;100.00
24788;BME280;12883;52.662;5.196;2023-07-30T06:33:55;100790.00;;;18.03;100.00
24788;BME280;12883;52.662;5.196;2023-07-30T06:36:20;100771.41;;;17.80;100.00
24788;BME280;12883;52.662;5.196;2023-07-30T06:38:46;100789.88;;;17.76;100.00
24788;BME280;12883;52.662;5.196;2023-07-30T06:41:11;100773.31;;;17.63;100.00
24788;BME280;12883;52.662;5.196;2023-07-30T06:43:37;100783.50;;;17.61;100.00
24788;BME280;12883;52.662;5.196;2023-07-30T06:46:02;100774.53;;;17.55;100.00
24788;BME280;12883;52.662;5.196;2023-07-30T06:48:27;100774.53;;;17.55;100.00
24788;BME280;12883;52.662;5.196;2023-07-30T06:50:53;100777.22;;;17.55;100.00
24788;BME280;12883;52.662;5.196;2023-07-30T06:53:18;100770.22;;;17.54;100.00
24788;BME280;12883;52.662;5.196;2023-07-30T06:55:43;100755.59;;;17.45;100.00
24788;BME280;12883;52.662;5.196;2023-07-30T06:58:10;100765.94;;;17.53;100.00
24788;BME280;12883;52.662;5.196;2023-07-30T07:00:35;100771.78;;;17.50;100.00
24788;BME280;12883;52.662;5.196;2023-07-30T07:03:00;100723.63;;;17.27;100.00
24788;BME280;12883;52.662;5.196;2023-07-30T07:05:26;100762.81;;;17.61;100.00
24788;BME280;12883;52.662;5.196;2023-07-30T07:07:51;100747.53;;;17.78;100.00
24788;BME280;12883;52.662;5.196;2023-07-30T07:10:16;100755.66;;;18.05;100.00
24788;BME280;12883;52.662;5.196;2023-07-30T07:12:42;100758.03;;;18.23;100.00
24788;BME280;12883;52.662;5.196;2023-07-30T07:15:07;100767.31;;;18.32;100.00
24788;BME280;12883;52.662;5.196;2023-07-30T07:17:33;100740.63;;;18.25;100.00
24788;BME280;12883;52.662;5.196;2023-07-30T07:20:00;100764.13;;;18.35;100.00
24788;BME280;12883;52.662;5.196;2023-07-30T07:22:25;100771.94;;;18.36;100.00
24788;BME280;12883;52.662;5.196;2023-07-30T07:24:51;100751.44;;;18.30;100.00
24788;BME280;12883;52.662;5.196;2023-07-30T07:27:19;100751.56;;;18.40;100.00
24788;BME280;12883;52.662;5.196;2023-07-30T07:29:44;100756.97;;;18.45;100.00
24788;BME280;12883;52.662;5.196;2023-07-30T07:32:10;100752.97;;;18.48;100.00
24788;BME280;12883;52.662;5.196;2023-07-30T07:34:35;100768.09;;;18.54;100.00
24788;BME280;12883;52.662;5.196;2023-07-30T07:37:02;100745.56;;;18.33;100.00
24788;BME280;12883;52.662;5.196;2023-07-30T07:39:27;100781.47;;;18.49;100.00
24788;BME280;12883;52.662;5.196;2023-07-30T07:41:52;100795.66;;;18.44;100.00
24788;BME280;12883;52.662;5.196;2023-07-30T07:44:18;100787.88;;;18.43;100.00
24788;BME280;12883;52.662;5.196;2023-07-30T07:46:43;100792.78;;;18.29;100.00
24788;BME280;12883;52.662;5.196;2023-07-30T07:49:08;100764.38;;;17.95;100.00
24788;BME280;12883;52.662;5.196;2023-07-30T07:51:34;100772.03;;;17.87;100.00
24788;BME280;12883;52.662;5.196;2023-07-30T07:53:59;100760.53;;;17.70;100.00
24788;BME280;12883;52.662;5.196;2023-07-30T07:56:25;100794.88;;;17.68;100.00
24788;BME280;12883;52.662;5.196;2023-07-30T07:58:50;100798.78;;;17.44;100.00
24788;BME280;12883;52.662;5.196;2023-07-30T08:01:15;100777.81;;;17.41;100.00
24788;BME280;12883;52.662;5.196;2023-07-30T08:03:41;100772.56;;;17.34;100.00
24788;BME280;12883;52.662;5.196;2023-07-30T08:06:06;100775.91;;;17.25;100.00
24788;BME280;12883;52.662;5.196;2023-07-30T08:08:31;100756.50;;;17.18;100.00
24788;BME280;12883;52.662;5.196;2023-07-30T08:10:57;100765.25;;;17.30;100.00
24788;BME280;12883;52.662;5.196;2023-07-30T08:13:23;100757.28;;;17.35;100.00
24788;BME280;12883;52.662;5.196;2023-07-30T08:15:48;100754.56;;;17.46;100.00
24788;BME280;12883;52.662;5.196;2023-07-30T08:18:14;100742.00;;;17.68;100.00
24788;BME280;12883;52.662;5.196;2023-07-30T08:20:39;100733.97;;;17.90;100.00
24788;BME280;12883;52.662;5.196;2023-07-30T08:23:04;100743.84;;;18.06;100.00
24788;BME280;12883;52.662;5.196;2023-07-30T08:25:30;100734.28;;;17.93;100.00
24788;BME280;12883;52.662;5.196;2023-07-30T08:27:55;100744.53;;;17.96;100.00
24788;BME280;12883;52.662;5.196;2023-07-30T08:30:20;100753.66;;;17.95;100.00
24788;BME280;12883;52.662;5.196;2023-07-30T08:32:46;100712.53;;;17.73;100.00
24788;BME280;12883;52.662;5.196;2023-07-30T08:35:11;100744.53;;;17.96;100.00
24788;BME280;12883;52.662;5.196;2023-07-30T08:37:37;100761.38;;;17.92;100.00
24788;BME280;12883;52.662;5.196;2023-07-30T08:40:03;100746.22;;;18.02;100.00
24788;BME280;12883;52.662;5.196;2023-07-30T08:42:29;100747.91;;;18.08;100.00
24788;BME280;12883;52.662;5.196;2023-07-30T08:44:54;100750.16;;;18.16;100.00
24788;BME280;12883;52.662;5.196;2023-07-30T08:47:19;100707.44;;;17.93;100.00
24788;BME280;12883;52.662;5.196;2023-07-30T08:49:45;100755.34;;;18.44;100.00
24788;BME280;12883;52.662;5.196;2023-07-30T08:52:11;100719.19;;;18.30;100.00
24788;BME280;12883;52.662;5.196;2023-07-30T08:54:37;100765.94;;;18.77;100.00
24788;BME280;12883;52.662;5.196;2023-07-30T08:57:04;100765.38;;;18.75;100.00
24788;BME280;12883;52.662;5.196;2023-07-30T08:59:39;100741.44;;;18.47;100.00
24788;BME280;12883;52.662;5.196;2023-07-30T09:02:11;100780.53;;;18.81;100.00
24788;BME280;12883;52.662;5.196;2023-07-30T09:04:38;100794.88;;;18.92;100.00
24788;BME280;12883;52.662;5.196;2023-07-30T09:07:08;100808.06;;;18.93;100.00
24788;BME280;12883;52.662;5.196;2023-07-30T09:09:36;100768.16;;;18.85;100.00
24788;BME280;12883;52.662;5.196;2023-07-30T09:12:02;100810.94;;;19.13;100.00
24788;BME280;12883;52.662;5.196;2023-07-30T09:14:27;100805.84;;;19.17;100.00
24788;BME280;12883;52.662;5.196;2023-07-30T09:16:58;100824.22;;;19.20;100.00
24788;BME280;12883;52.662;5.196;2023-07-30T09:19:24;100825.75;;;19.37;100.00
24788;BME280;12883;52.662;5.196;2023-07-30T09:21:49;100843.34;;;19.50;100.00
24788;BME280;12883;52.662;5.196;2023-07-30T09:24:21;100841.53;;;19.60;100.00
24788;BME280;12883;52.662;5.196;2023-07-30T09:26:46;100852.06;;;19.62;100.00
24788;BME280;12883;52.662;5.196;2023-07-30T09:29:12;100857.50;;;19.72;100.00
24788;BME280;12883;52.662;5.196;2023-07-30T09:31:52;100852.19;;;19.77;100.00
24788;BME280;12883;52.662;5.196;2023-07-30T09:34:23;100850.91;;;19.84;100.00
24788;BME280;12883;52.662;5.196;2023-07-30T09:36:55;100850.91;;;19.84;100.00
24788;BME280;12883;52.662;5.196;2023-07-30T09:39:22;100867.59;;;19.86;100.00
24788;BME280;12883;52.662;5.196;2023-07-30T09:41:52;100871.47;;;20.00;100.00
24788;BME280;12883;52.662;5.196;2023-07-30T09:44:19;100892.44;;;19.93;100.00
24788;BME280;12883;52.662;5.196;2023-07-30T09:46:46;100891.00;;;19.81;100.00
24788;BME280;12883;52.662;5.196;2023-07-30T09:49:12;100856.63;;;19.61;100.00
24788;BME280;12883;52.662;5.196;2023-07-30T09:51:38;100856.72;;;19.71;100.00
24788;BME280;12883;52.662;5.196;2023-07-30T09:54:06;100899.50;;;20.04;100.00
24788;BME280;12883;52.662;5.196;2023-07-30T09:56:31;100886.03;;;19.99;100.00
24788;BME280;12883;52.662;5.196;2023-07-30T09:58:57;100866.09;;;20.00;100.00
24788;BME280;12883;52.662;5.196;2023-07-30T10:01:23;100863.75;;;20.09;100.00
24788;BME280;12883;52.662;5.196;2023-07-30T10:03:52;100916.13;;;20.23;100.00
24788;BME280;12883;52.662;5.196;2023-07-30T10:06:21;100868.09;;;19.78;100.00
24788;BME280;12883;52.662;5.196;2023-07-30T10:08:49;100917.41;;;20.15;100.00
24788;BME280;12883;52.662;5.196;2023-07-30T10:11:16;100888.13;;;19.97;100.00
24788;BME280;12883;52.662;5.196;2023-07-30T10:13:43;100923.16;;;20.29;100.00
24788;BME280;12883;52.662;5.196;2023-07-30T10:16:12;100928.16;;;20.10;100.00
24788;BME280;12883;52.662;5.196;2023-07-30T10:18:41;100927.06;;;20.06;100.00
24788;BME280;12883;52.662;5.196;2023-07-30T10:21:08;100921.22;;;20.19;100.00
24788;BME280;12883;52.662;5.196;2023-07-30T10:23:34;100933.63;;;20.20;100.00
24788;BME280;12883;52.662;5.196;2023-07-30T10:26:09;100928.06;;;20.00;100.00
24788;BME280;12883;52.662;5.196;2023-07-30T10:28:35;100924.81;;;19.98;100.00
24788;BME280;12883;52.662;5.196;2023-07-30T10:31:05;100925.56;;;19.94;100.00
24788;BME280;12883;52.662;5.196;2023-07-30T10:34:09;100924.00;;;19.98;100.00
24788;BME280;12883;52.662;5.196;2023-07-30T10:36:42;100927.63;;;19.82;100.00
24788;BME280;12883;52.662;5.196;2023-07-30T10:41:37;100923.09;;;19.87;100.00
24788;BME280;12883;52.662;5.196;2023-07-30T10:44:02;100908.66;;;19.98;100.00
24788;BME280;12883;52.662;5.196;2023-07-30T10:46:28;100917.41;;;20.15;100.00
24788;BME280;12883;52.662;5.196;2023-07-30T10:48:54;100916.63;;;20.20;100.00
24788;BME280;12883;52.662;5.196;2023-07-30T10:51:19;100922.56;;;20.17;100.00
24788;BME280;12883;52.662;5.196;2023-07-30T10:53:46;100930.34;;;20.13;100.00
24788;BME280;12883;52.662;5.196;2023-07-30T10:56:13;100929.97;;;20.05;100.00
24788;BME280;12883;52.662;5.196;2023-07-30T10:58:39;100937.41;;;20.19;100.00
24788;BME280;12883;52.662;5.196;2023-07-30T11:01:06;100932.47;;;20.11;100.00
24788;BME280;12883;52.662;5.196;2023-07-30T11:03:32;100900.66;;;20.08;100.00
24788;BME280;12883;52.662;5.196;2023-07-30T11:05:58;100935.00;;;20.23;100.00
24788;BME280;12883;52.662;5.196;2023-07-30T11:08:41;100958.69;;;20.21;100.00
24788;BME280;12883;52.662;5.196;2023-07-30T11:11:08;100899.50;;;20.04;100.00
24788;BME280;12883;52.662;5.196;2023-07-30T11:13:41;100939.75;;;20.52;100.00
24788;BME280;12883;52.662;5.196;2023-07-30T11:16:08;100935.00;;;20.69;100.00
24788;BME280;12883;52.662;5.196;2023-07-30T11:18:36;100968.44;;;20.68;100.00
24788;BME280;12883;52.662;5.196;2023-07-30T11:21:06;100966.53;;;20.63;100.00
24788;BME280;12883;52.662;5.196;2023-07-30T11:23:32;100971.94;;;20.63;100.00
24788;BME280;12883;52.662;5.196;2023-07-30T11:25:57;100985.88;;;20.51;100.00
24788;BME280;12883;52.662;5.196;2023-07-30T11:28:36;100973.75;;;20.53;100.00
24788;BME280;12883;52.662;5.196;2023-07-30T11:31:04;100986.75;;;20.61;100.00
24788;BME280;12883;52.662;5.196;2023-07-30T11:33:30;100976.22;;;20.59;100.00
24788;BME280;12883;52.662;5.196;2023-07-30T11:35:56;100995.38;;;20.63;100.00
24788;BME280;12883;52.662;5.196;2023-07-30T11:38:23;100998.16;;;20.78;100.00
24788;BME280;12883;52.662;5.196;2023-07-30T11:40:51;100992.88;;;20.93;100.00
24788;BME280;12883;52.662;5.196;2023-07-30T11:43:16;100997.13;;;20.84;100.00
24788;BME280;12883;52.662;5.196;2023-07-30T11:45:42;100996.41;;;20.93;100.00
24788;BME280;12883;52.662;5.196;2023-07-30T11:48:11;100977.75;;;20.92;100.00
24788;BME280;12883;52.662;5.196;2023-07-30T11:50:51;101006.84;;;20.85;100.00
24788;BME280;12883;52.662;5.196;2023-07-30T11:53:17;101008.28;;;20.92;100.00
24788;BME280;12883;52.662;5.196;2023-07-30T11:55:44;101016.78;;;20.79;100.00
24788;BME280;12883;52.662;5.196;2023-07-30T11:58:11;101025.69;;;20.75;100.00
24788;BME280;12883;52.662;5.196;2023-07-30T12:00:37;101032.16;;;20.74;100.00
24788;BME280;12883;52.662;5.196;2023-07-30T12:03:04;101018.41;;;20.80;100.00
24788;BME280;12883;52.662;5.196;2023-07-30T12:05:34;100952.34;;;20.42;100.00
24788;BME280;12883;52.662;5.196;2023-07-30T12:08:03;101023.22;;;20.73;100.00
24788;BME280;12883;52.662;5.196;2023-07-30T12:10:46;101024.72;;;20.54;100.00
24788;BME280;12883;52.662;5.196;2023-07-30T12:13:16;101022.72;;;20.40;100.00
24788;BME280;12883;52.662;5.196;2023-07-30T12:15:55;101005.31;;;19.68;100.00
24788;BME280;12883;52.662;5.196;2023-07-30T12:18:22;100997.53;;;19.45;100.00
24788;BME280;12883;52.662;5.196;2023-07-30T12:20:52;100984.41;;;19.27;100.00
24788;BME280;12883;52.662;5.196;2023-07-30T12:23:19;100984.53;;;19.37;100.00
24788;BME280;12883;52.662;5.196;2023-07-30T12:25:45;100968.19;;;19.44;100.00
24788;BME280;12883;52.662;5.196;2023-07-30T12:28:11;100952.47;;;19.62;100.00
24788;BME280;12883;52.662;5.196;2023-07-30T12:30:37;100956.09;;;19.73;100.00
24788;BME280;12883;52.662;5.196;2023-07-30T12:33:03;100955.06;;;19.79;100.00
24788;BME280;12883;52.662;5.196;2023-07-30T12:35:29;100964.31;;;19.61;100.00
24788;BME280;12883;52.662;5.196;2023-07-30T12:37:55;100957.31;;;19.60;100.00